Time;durP1;ratioP1;P1;durP2;ratioP2;P2;SDS_P1;SDS_P2;PMS_P1;PMS_P2;Temp;Humidity;BMP_temperature;BMP_pressure;BME280_temperature;BME280_humidity;BME280_pressure;Samples;Min_cycle;Max_cycle;Signal;HPM_P1;HPM_P2
2022/08/09 00:00:09;;;;;;;3.33;1.35;;;;;;;19.37;39.76;101566.91;10458268;28;20246;-77
2022/08/09 00:05:31;;;;;;;3.13;1.02;;;;;;;19.50;39.53;101564.81;10463692;28;20196;-82
2022/08/09 00:10:53;;;;;;;6.72;1.33;;;;;;;19.10;40.61;101564.91;10466456;28;20215;-77
2022/08/09 00:16:16;;;;;;;4.95;1.25;;;;;;;19.43;39.85;101553.16;10467752;28;20600;-83
2022/08/09 00:21:38;;;;;;;3.60;1.00;;;;;;;18.14;42.12;101559.88;10445442;28;20285;-77
2022/08/09 00:27:01;;;;;;;3.75;1.20;;;;;;;17.62;44.16;101549.16;10469586;28;20241;-77
2022/08/09 00:32:23;;;;;;;2.83;1.30;;;;;;;17.51;44.50;101559.34;10448339;28;20269;-76
2022/08/09 00:37:45;;;;;;;2.15;1.15;;;;;;;17.35;44.69;101564.06;10462827;28;20254;-82
2022/08/09 00:43:07;;;;;;;1.10;0.95;;;;;;;17.43;44.36;101560.28;10448152;28;20188;-78
2022/08/09 00:48:29;;;;;;;3.22;0.90;;;;;;;17.93;43.48;101564.88;10447626;28;20604;-77
2022/08/09 00:53:52;;;;;;;3.55;1.20;;;;;;;17.64;44.62;101551.66;10447832;28;20631;-83
2022/08/09 00:59:14;;;;;;;4.53;1.00;;;;;;;17.46;45.18;101556.72;10431642;28;20663;-77
2022/08/09 01:04:57;;;;;;;2.42;1.10;;;;;;;17.36;45.54;101562.03;10447201;28;20218;-82
2022/08/09 01:10:41;;;;;;;1.10;0.95;;;;;;;17.26;46.07;101560.47;10460455;28;20269;-76
2022/08/09 01:16:05;;;;;;;4.45;1.80;;;;;;;16.91;46.51;101569.34;10446275;28;20246;-83
2022/08/09 01:21:37;;;;;;;2.38;1.20;;;;;;;17.43;45.66;101568.84;10437091;28;20195;-77
2022/08/09 01:27:09;;;;;;;2.58;1.48;;;;;;;17.11;46.40;101572.53;10447805;28;20191;-83
2022/08/09 01:32:35;;;;;;;1.83;1.13;;;;;;;16.92;46.58;101570.19;10446031;28;20208;-84
2022/08/09 01:37:59;;;;;;;3.08;1.40;;;;;;;16.89;46.87;101574.56;10456242;28;20484;-80
2022/08/09 01:43:22;;;;;;;4.50;1.42;;;;;;;17.17;46.29;101565.44;10432546;28;20232;-84
2022/08/09 01:48:45;;;;;;;3.30;1.40;;;;;;;17.23;46.45;101569.72;10445227;28;20216;-84
2022/08/09 01:54:07;;;;;;;2.50;1.50;;;;;;;17.37;45.71;101566.56;10470709;28;20218;-78
2022/08/09 01:59:31;;;;;;;1.88;1.58;;;;;;;17.07;46.88;101571.56;10428523;28;20230;-79
2022/08/09 02:04:54;;;;;;;2.65;1.30;;;;;;;16.55;48.53;101575.66;10446830;28;20535;-79
2022/08/09 02:10:20;;;;;;;1.98;1.50;;;;;;;16.93;47.25;101572.69;10459874;28;20269;-84
2022/08/09 02:15:45;;;;;;;2.78;1.50;;;;;;;16.86;47.55;101578.09;10453209;28;20230;-82
2022/08/09 02:21:15;;;;;;;5.22;1.48;;;;;;;16.50;48.64;101573.03;10444833;28;20249;-85
2022/08/09 02:26:37;;;;;;;3.53;1.65;;;;;;;16.78;48.01;101569.63;10448187;28;20622;-84
2022/08/09 02:32:00;;;;;;;1.90;1.30;;;;;;;16.77;48.41;101565.97;10467513;28;20211;-76
2022/08/09 02:37:25;;;;;;;2.92;2.00;;;;;;;16.18;49.81;101568.88;10462654;28;20195;-80
2022/08/09 02:42:50;;;;;;;3.70;1.70;;;;;;;16.47;49.08;101564.34;10452737;28;20184;-81
2022/08/09 02:48:13;;;;;;;2.42;1.63;;;;;;;16.58;48.80;101559.91;10452354;28;20192;-78
2022/08/09 02:53:41;;;;;;;4.60;1.88;;;;;;;16.25;49.98;101567.53;10448066;28;20211;-84
2022/08/09 02:59:04;;;;;;;3.20;1.90;;;;;;;16.54;49.20;101564.63;10434546;28;20247;-78
2022/08/09 03:04:26;;;;;;;2.42;1.60;;;;;;;16.71;48.77;101570.19;10453600;28;20491;-84
2022/08/09 03:09:49;;;;;;;6.43;2.10;;;;;;;16.17;50.27;101561.50;10423399;28;20566;-78
2022/08/09 03:15:12;;;;;;;3.08;1.98;;;;;;;15.77;51.54;101566.75;10435205;28;20211;-79
2022/08/09 03:20:38;;;;;;;2.67;2.00;;;;;;;16.15;50.88;101572.38;10451334;28;20298;-82
2022/08/09 03:26:01;;;;;;;3.90;2.00;;;;;;;16.34;50.17;101563.44;10450892;28;20657;-76
2022/08/09 03:31:24;;;;;;;2.97;2.03;;;;;;;16.38;50.03;101569.28;10436368;28;20494;-77
2022/08/09 03:36:47;;;;;;;4.97;1.80;;;;;;;16.21;50.79;101565.34;10449568;28;20195;-82
2022/08/09 03:42:09;;;;;;;3.28;2.03;;;;;;;16.23;50.51;101561.34;10464270;28;20188;-82
2022/08/09 03:47:31;;;;;;;4.00;2.40;;;;;;;16.18;50.80;101571.72;10442783;28;20680;-81
2022/08/09 03:52:58;;;;;;;4.75;2.35;;;;;;;16.24;50.81;101566.69;10452048;28;20632;-82
2022/08/09 03:58:21;;;;;;;6.13;2.33;;;;;;;16.06;50.93;101577.31;10435932;28;20543;-76
2022/08/09 04:03:44;;;;;;;4.95;2.10;;;;;;;16.14;50.87;101573.59;10453530;28;20199;-82
2022/08/09 04:09:06;;;;;;;3.35;2.47;;;;;;;16.01;51.49;101571.84;10449228;28;20698;-81
2022/08/09 04:14:28;;;;;;;4.93;2.45;;;;;;;15.73;52.38;101579.16;10447357;28;20285;-83
2022/08/09 04:19:50;;;;;;;6.67;2.80;;;;;;;15.86;51.98;101584.63;10454643;28;20608;-83
2022/08/09 04:25:12;;;;;;;3.37;2.53;;;;;;;15.94;51.99;101597.09;10446902;28;20655;-84
2022/08/09 04:30:34;;;;;;;5.72;3.08;;;;;;;16.00;52.00;101594.91;10462960;28;20192;-82
2022/08/09 04:35:57;;;;;;;4.55;2.75;;;;;;;15.64;53.00;101593.38;10464897;28;20265;-82
2022/08/09 04:41:19;;;;;;;7.68;3.20;;;;;;;15.55;53.25;101595.44;10454675;28;20246;-82
2022/08/09 04:46:41;;;;;;;7.95;3.20;;;;;;;15.70;53.76;101591.19;10449728;28;20249;-82
2022/08/09 04:52:05;;;;;;;5.10;3.17;;;;;;;15.60;53.98;101600.09;10475417;28;20273;-82
2022/08/09 04:57:27;;;;;;;9.00;3.07;;;;;;;15.78;53.79;101598.84;10466679;28;20204;-81
2022/08/09 05:02:50;;;;;;;8.35;3.58;;;;;;;15.60;54.20;101603.78;10453677;28;20257;-76
2022/08/09 05:08:12;;;;;;;5.50;4.55;;;;;;;15.69;54.27;101601.72;10443486;28;20644;-80
2022/08/09 05:13:34;;;;;;;4.38;3.55;;;;;;;15.79;53.79;101612.72;10445222;28;20613;-82
2022/08/09 05:18:56;;;;;;;5.47;3.92;;;;;;;16.06;52.80;101624.81;10428935;28;20231;-77
2022/08/09 05:24:18;;;;;;;6.22;4.68;;;;;;;16.45;52.89;101621.63;10442132;28;20249;-81
2022/08/09 05:29:41;;;;;;;7.55;4.35;;;;;;;17.29;50.00;101613.91;10458668;28;20218;-78
2022/08/09 05:35:04;;;;;;;9.43;4.80;;;;;;;17.36;49.90;101625.56;10468530;28;20220;-82
2022/08/09 05:40:27;;;;;;;7.80;5.90;;;;;;;17.41;49.74;101616.81;10430262;28;20241;-78
2022/08/09 05:45:49;;;;;;;9.70;5.93;;;;;;;17.61;49.38;101609.41;10432970;28;20555;-81
2022/08/09 05:51:11;;;;;;;12.87;5.90;;;;;;;17.21;50.71;101629.06;10437118;28;20204;-78
2022/08/09 05:56:33;;;;;;;9.35;5.72;;;;;;;17.27;50.22;101611.41;10443679;28;20224;-82
2022/08/09 06:01:56;;;;;;;9.48;5.35;;;;;;;17.72;49.48;101615.47;10457192;28;20253;-77
2022/08/09 06:07:18;;;;;;;11.20;5.88;;;;;;;17.60;49.81;101616.25;10462741;28;20694;-81
2022/08/09 06:12:41;;;;;;;13.55;6.32;;;;;;;17.45;50.18;101617.75;10440610;28;20286;-77
2022/08/09 06:18:04;;;;;;;13.70;7.25;;;;;;;17.82;48.98;101626.44;10452194;28;20261;-78
2022/08/09 06:23:28;;;;;;;10.02;7.03;;;;;;;18.07;48.26;101619.56;10464872;28;20192;-77
2022/08/09 06:28:52;;;;;;;13.43;7.10;;;;;;;18.28;47.72;101623.16;10449243;28;20195;-82
2022/08/09 06:34:14;;;;;;;8.48;7.03;;;;;;;18.22;47.85;101618.03;10441559;28;20223;-82
2022/08/09 06:39:36;;;;;;;9.65;7.00;;;;;;;17.78;49.40;101631.19;10441962;28;20258;-81
2022/08/09 06:44:58;;;;;;;11.23;6.45;;;;;;;18.24;47.70;101622.16;10439440;28;20203;-77
2022/08/09 06:50:20;;;;;;;10.98;6.55;;;;;;;18.26;47.76;101634.06;10441923;28;20187;-77
2022/08/09 06:55:43;;;;;;;11.82;6.70;;;;;;;18.26;48.15;101634.06;10452891;28;20243;-77
2022/08/09 07:01:05;;;;;;;8.55;6.15;;;;;;;18.53;47.25;101640.25;10444371;28;20548;-78
2022/08/09 07:06:27;;;;;;;5.93;4.32;;;;;;;18.86;46.14;101635.22;10443437;28;20238;-82
2022/08/09 07:11:49;;;;;;;6.40;4.30;;;;;;;18.44;47.43;101636.72;10423447;28;20274;-82
2022/08/09 07:17:13;;;;;;;4.97;3.67;;;;;;;18.82;46.38;101634.25;10452143;28;20256;-78
2022/08/09 07:22:35;;;;;;;7.00;4.22;;;;;;;18.73;46.63;101639.28;10457691;28;20192;-81
2022/08/09 07:27:57;;;;;;;4.70;3.80;;;;;;;18.73;47.49;101644.16;10468830;28;20650;-77
2022/08/09 07:33:19;;;;;;;5.97;4.03;;;;;;;19.19;45.91;101632.13;10451206;28;20240;-78
2022/08/09 07:38:41;;;;;;;6.05;3.28;;;;;;;19.25;45.71;101621.28;10463248;28;20192;-81
2022/08/09 07:44:03;;;;;;;4.47;3.28;;;;;;;19.26;45.76;101634.41;10458333;28;20433;-78
2022/08/09 07:49:25;;;;;;;5.15;3.50;;;;;;;19.61;44.42;101632.56;10463331;28;20203;-81
2022/08/09 07:54:47;;;;;;;5.85;3.78;;;;;;;19.59;44.31;101632.09;10457826;28;20227;-82
2022/08/09 08:00:10;;;;;;;6.53;3.78;;;;;;;20.05;43.83;101635.34;10467597;28;20199;-77
2022/08/09 08:05:32;;;;;;;9.00;3.30;;;;;;;20.16;42.04;101629.91;10449719;28;20192;-78
2022/08/09 08:10:54;;;;;;;4.90;3.05;;;;;;;19.88;43.66;101630.84;10456886;28;20235;-82
2022/08/09 08:16:17;;;;;;;6.07;3.42;;;;;;;19.83;44.53;101636.00;10469139;28;20216;-77
2022/08/09 08:21:39;;;;;;;7.65;4.18;;;;;;;20.16;43.81;101642.19;10468218;28;20192;-81
2022/08/09 08:27:01;;;;;;;4.43;3.50;;;;;;;19.96;43.38;101655.56;10455705;28;20215;-81
2022/08/09 08:32:23;;;;;;;11.30;3.63;;;;;;;20.62;42.03;101645.38;10448676;28;20212;-78
2022/08/09 08:37:45;;;;;;;9.23;2.65;;;;;;;20.63;41.87;101644.19;10461677;28;20195;-82
2022/08/09 08:43:08;;;;;;;5.50;2.95;;;;;;;20.92;40.65;101637.94;10472495;28;20195;-81
2022/08/09 08:48:31;;;;;;;3.92;3.10;;;;;;;21.27;39.50;101632.13;10461191;28;20204;-82
2022/08/09 08:53:53;;;;;;;3.88;2.90;;;;;;;21.91;38.38;101626.81;10440953;28;20513;-78
2022/08/09 08:59:15;;;;;;;4.25;2.55;;;;;;;21.39;39.44;101634.03;10475248;28;20191;-77
2022/08/09 09:04:42;;;;;;;6.03;2.28;;;;;;;22.17;37.92;101626.91;10459564;28;20191;-77
2022/08/09 09:10:07;;;;;;;3.83;2.60;;;;;;;21.42;38.54;101639.03;10455998;28;20289;-78
2022/08/09 09:15:29;;;;;;;3.78;2.50;;;;;;;21.83;39.00;101631.63;10459301;28;20241;-80
2022/08/09 09:20:51;;;;;;;6.97;3.70;;;;;;;21.91;37.28;101644.03;10444489;28;20192;-78
2022/08/09 09:26:14;;;;;;;6.63;2.55;;;;;;;22.58;36.23;101624.31;10460410;28;20200;-78
2022/08/09 09:31:37;;;;;;;5.30;2.22;;;;;;;23.04;35.98;101630.69;10449442;28;20200;-78
2022/08/09 09:37:00;;;;;;;8.43;2.33;;;;;;;23.11;35.42;101630.84;10445166;28;20639;-78
2022/08/09 09:42:24;;;;;;;5.10;2.28;;;;;;;22.32;35.58;101637.41;10455111;28;20265;-81
2022/08/09 09:47:46;;;;;;;5.93;2.95;;;;;;;23.30;35.61;101633.53;10446924;28;20658;-78
2022/08/09 09:53:21;;;;;;;5.80;2.58;;;;;;;23.54;33.99;101629.31;10451479;28;20552;-82
2022/08/09 09:58:46;;;;;;;4.65;2.72;;;;;;;23.60;33.84;101633.47;10456962;28;20199;-82
2022/08/09 10:04:17;;;;;;;2.92;1.67;;;;;;;23.34;33.78;101624.94;10466964;28;20254;-78
2022/08/09 10:09:47;;;;;;;5.43;2.15;;;;;;;23.38;33.34;101631.59;10471453;28;20231;-78
2022/08/09 10:15:14;;;;;;;3.03;2.13;;;;;;;24.06;32.13;101633.16;10453126;28;20216;-82
2022/08/09 10:20:36;;;;;;;4.95;2.00;;;;;;;24.43;31.06;101630.19;10454228;28;20213;-79
2022/08/09 10:26:01;;;;;;;2.17;1.80;;;;;;;25.04;31.65;101620.69;10400636;28;20604;-78
2022/08/09 10:31:23;;;;;;;3.45;2.20;;;;;;;24.56;31.15;101617.94;10463014;28;20592;-83
2022/08/09 10:36:48;;;;;;;3.35;2.00;;;;;;;24.47;30.50;101620.31;10463117;28;20234;-82
2022/08/09 10:42:12;;;;;;;3.30;2.33;;;;;;;23.42;31.44;101620.97;10455944;28;20194;-82
2022/08/09 10:48:07;;;;;;;8.00;2.13;;;;;;;25.26;29.85;101612.97;10468373;28;20191;-83
2022/08/09 10:53:52;;;;;;;3.67;2.10;;;;;;;25.14;30.38;101610.44;10462018;28;20614;-79
2022/08/09 10:59:23;;;;;;;2.95;2.30;;;;;;;24.84;29.70;101614.44;10459591;28;20199;-82
2022/08/09 11:05:15;;;;;;;3.50;2.22;;;;;;;24.80;30.21;101612.75;10471671;28;20261;-79
2022/08/09 11:10:40;;;;;;;4.05;2.30;;;;;;;24.83;30.05;101609.06;10465658;28;20232;-82
2022/08/09 11:16:51;;;;;;;3.03;2.25;;;;;;;24.85;29.19;101606.56;10475843;28;20268;-81
2022/08/09 11:22:13;;;;;;;5.18;2.10;;;;;;;25.81;28.01;101601.19;10478618;28;20207;-83
2022/08/09 11:27:37;;;;;;;3.33;2.05;;;;;;;25.10;28.93;101596.00;10429856;28;20265;-83
2022/08/09 11:33:43;;;;;;;3.72;2.30;;;;;;;25.72;28.15;101590.84;10420235;28;20247;-80
2022/08/09 11:39:05;;;;;;;2.55;2.33;;;;;;;25.31;28.36;101587.44;10411663;28;20213;-80
2022/08/09 11:44:44;;;;;;;5.30;2.10;;;;;;;26.10;27.86;101571.06;10442376;28;20228;-79
2022/08/09 11:50:06;;;;;;;3.60;2.22;;;;;;;26.41;27.51;101572.28;10443642;28;20191;-79
2022/08/09 11:55:29;;;;;;;4.40;1.77;;;;;;;26.96;26.65;101563.06;10449841;28;20215;-83
2022/08/09 12:00:51;;;;;;;4.05;2.10;;;;;;;26.62;26.59;101554.06;10464463;28;20199;-83
2022/08/09 12:06:15;;;;;;;3.00;2.10;;;;;;;26.71;25.96;101560.22;10467423;28;20192;-80
2022/08/09 12:11:37;;;;;;;5.65;1.75;;;;;;;25.92;26.81;101553.72;10466154;28;20272;-83
2022/08/09 12:16:59;;;;;;;2.65;2.13;;;;;;;26.62;25.95;101554.91;10472377;28;20285;-83
2022/08/09 12:22:22;;;;;;;2.88;1.88;;;;;;;26.78;26.03;101550.75;10454159;28;20254;-83
2022/08/09 12:27:44;;;;;;;4.38;1.90;;;;;;;27.09;24.76;101543.97;10445538;28;20195;-81
2022/08/09 12:33:06;;;;;;;6.22;2.10;;;;;;;27.27;25.34;101546.81;10457233;28;20246;-82
2022/08/09 12:38:29;;;;;;;4.78;2.00;;;;;;;27.34;25.01;101544.69;10443626;28;20297;-82
2022/08/09 12:43:52;;;;;;;3.53;2.15;;;;;;;26.83;26.80;101539.53;10445631;28;20469;-83
2022/08/09 12:49:15;;;;;;;3.53;2.00;;;;;;;27.70;24.07;101535.75;10455003;28;20229;-79
2022/08/09 12:54:48;;;;;;;6.95;2.10;;;;;;;27.68;23.97;101523.78;10437345;28;20293;-82
2022/08/09 13:00:20;;;;;;;4.05;2.03;;;;;;;27.87;24.50;101511.63;10470206;28;20191;-81
2022/08/09 13:05:47;;;;;;;4.00;2.08;;;;;;;27.62;24.07;101513.88;10446316;28;20199;-82
2022/08/09 13:11:10;;;;;;;4.28;2.08;;;;;;;27.42;23.73;101508.66;10444638;28;20228;-80
2022/08/09 13:16:44;;;;;;;2.70;2.10;;;;;;;28.18;24.18;101506.75;10450292;28;20284;-79
2022/08/09 13:22:17;;;;;;;3.17;1.55;;;;;;;27.78;23.76;101505.50;10455103;28;20661;-81
2022/08/09 13:27:40;;;;;;;7.45;2.20;;;;;;;27.59;23.69;101508.94;10443875;28;20245;-82
2022/08/09 13:33:02;;;;;;;4.05;2.00;;;;;;;28.45;23.01;101504.03;10436781;28;20207;-82
2022/08/09 13:38:25;;;;;;;2.72;1.98;;;;;;;27.70;23.34;101503.91;10443595;28;20488;-82
2022/08/09 13:43:47;;;;;;;4.63;2.10;;;;;;;27.48;25.21;101491.63;10441836;28;20188;-82
2022/08/09 13:49:09;;;;;;;2.30;1.88;;;;;;;26.15;26.04;101489.72;10452330;28;20196;-82
2022/08/09 13:54:31;;;;;;;2.53;1.73;;;;;;;26.38;26.02;101487.22;10462781;28;20286;-81
2022/08/09 13:59:53;;;;;;;1.75;1.42;;;;;;;27.04;24.27;101489.44;10426521;28;20488;-79
2022/08/09 14:05:16;;;;;;;4.10;1.60;;;;;;;26.07;26.15;101479.44;10445922;28;20611;-80
2022/08/09 14:10:38;;;;;;;3.00;2.40;;;;;;;26.23;25.64;101473.19;10465596;28;20231;-79
2022/08/09 14:16:00;;;;;;;6.20;1.95;;;;;;;26.47;25.76;101480.19;10453690;28;20243;-82
2022/08/09 14:21:23;;;;;;;2.47;2.17;;;;;;;25.88;25.17;101480.72;10451636;28;20248;-81
2022/08/09 14:26:46;;;;;;;2.25;1.65;;;;;;;26.29;25.11;101483.09;10447890;28;20225;-79
2022/08/09 14:32:08;;;;;;;2.38;1.80;;;;;;;26.61;24.57;101474.34;10426368;28;20222;-79
2022/08/09 14:37:30;;;;;;;4.82;1.80;;;;;;;25.80;25.69;101472.44;10466225;28;20227;-81
2022/08/09 14:42:53;;;;;;;2.88;2.00;;;;;;;26.12;26.59;101458.78;10453342;28;20227;-80
2022/08/09 14:48:15;;;;;;;4.60;1.55;;;;;;;26.76;24.61;101461.50;10430699;28;20269;-78
2022/08/09 14:53:37;;;;;;;6.88;1.73;;;;;;;26.69;24.61;101462.31;10451774;28;20220;-79
2022/08/09 14:58:59;;;;;;;3.67;1.50;;;;;;;26.66;24.86;101465.25;10459301;28;20196;-78
2022/08/09 15:04:21;;;;;;;3.47;1.70;;;;;;;26.16;25.34;101461.66;10457062;28;20200;-80
2022/08/09 15:09:44;;;;;;;5.85;1.70;;;;;;;25.58;25.77;101454.28;10446754;28;20223;-78
2022/08/09 15:15:06;;;;;;;3.33;1.50;;;;;;;26.97;24.21;101457.66;10461290;28;20313;-78
2022/08/09 15:20:29;;;;;;;4.40;1.38;;;;;;;26.37;24.99;101461.63;10442689;28;20253;-80
2022/08/09 15:25:51;;;;;;;3.30;1.45;;;;;;;26.87;24.20;101455.66;10431381;28;20725;-79
2022/08/09 15:31:14;;;;;;;2.85;1.30;;;;;;;26.65;25.34;101455.75;10449175;28;20238;-79
2022/08/09 15:36:36;;;;;;;2.00;1.45;;;;;;;26.82;24.28;101453.19;10449267;28;20235;-80
2022/08/09 15:41:58;;;;;;;4.38;1.40;;;;;;;26.90;23.73;101446.13;10454150;28;20195;-79
2022/08/09 15:47:20;;;;;;;3.53;1.63;;;;;;;26.69;24.44;101455.69;10435960;28;20624;-79
2022/08/09 15:52:43;;;;;;;2.60;1.20;;;;;;;26.05;24.17;101448.06;10463222;28;20253;-80
2022/08/09 15:58:06;;;;;;;3.35;1.20;;;;;;;26.54;24.81;101443.38;10435531;28;20251;-79
2022/08/09 16:03:28;;;;;;;3.22;1.45;;;;;;;26.42;25.13;101449.63;10440944;28;20211;-79
2022/08/09 16:08:50;;;;;;;4.75;1.63;;;;;;;26.80;23.93;101441.19;10438744;28;20277;-79
2022/08/09 16:14:12;;;;;;;3.38;1.30;;;;;;;26.66;24.69;101445.81;10439015;28;20256;-79
2022/08/09 16:19:34;;;;;;;4.82;1.42;;;;;;;26.22;25.02;101440.59;10408873;28;20341;-79
2022/08/09 16:24:56;;;;;;;1.33;1.20;;;;;;;25.59;25.84;101444.38;10452692;28;20681;-80
2022/08/09 16:30:19;;;;;;;2.00;1.38;;;;;;;26.17;25.45;101428.63;10454635;28;20714;-79
2022/08/09 16:35:42;;;;;;;3.40;1.20;;;;;;;25.69;25.38;101432.00;10449890;28;20246;-78
2022/08/09 16:41:04;;;;;;;2.42;1.38;;;;;;;25.58;25.66;101436.97;10421249;28;20287;-80
2022/08/09 16:46:27;;;;;;;3.33;1.00;;;;;;;25.76;25.31;101432.00;10439180;28;20272;-80
2022/08/09 16:51:49;;;;;;;2.60;1.10;;;;;;;25.18;25.77;101436.09;10447061;28;20288;-79
2022/08/09 16:57:11;;;;;;;5.70;1.25;;;;;;;25.97;25.14;101432.00;10446805;28;20372;-80
2022/08/09 17:02:33;;;;;;;3.60;1.33;;;;;;;25.33;25.80;101443.56;10449270;28;20281;-80
2022/08/09 17:07:56;;;;;;;4.47;1.10;;;;;;;25.78;25.14;101429.53;10439539;28;20227;-81
2022/08/09 17:13:12;;;;;;;3.10;1.30;;;;;;;25.46;25.48;101437.38;10506540;27;20660;-78
2022/08/09 17:18:34;;;;;;;4.65;1.33;;;;;;;25.46;26.30;101440.28;10479417;28;20221;-80
2022/08/09 17:23:57;;;;;;;3.78;1.20;;;;;;;25.51;25.88;101442.72;10492594;28;20602;-78
2022/08/09 17:29:19;;;;;;;4.20;1.65;;;;;;;25.25;26.02;101441.88;10503296;28;20304;-79
2022/08/09 17:34:42;;;;;;;4.00;1.35;;;;;;;25.47;25.86;101448.53;10474158;28;20261;-79
2022/08/09 17:40:05;;;;;;;1.60;1.08;;;;;;;24.91;26.30;101450.06;10498429;28;20275;-79
2022/08/09 17:45:27;;;;;;;3.53;1.15;;;;;;;25.19;26.76;101452.19;10490569;28;20230;-79
2022/08/09 17:50:49;;;;;;;1.70;1.30;;;;;;;25.51;25.52;101449.31;10480359;28;20709;-79
2022/08/09 17:56:13;;;;;;;2.92;1.40;;;;;;;25.09;26.47;101460.81;10465016;28;20684;-79
2022/08/09 18:01:35;;;;;;;2.53;1.38;;;;;;;24.97;26.63;101464.91;10481768;28;20223;-80
2022/08/09 18:06:58;;;;;;;1.42;1.20;;;;;;;24.52;26.58;101470.06;10483938;28;20236;-78
2022/08/09 18:12:20;;;;;;;1.88;1.40;;;;;;;24.58;27.34;101471.34;10469550;28;20308;-78
2022/08/09 18:17:44;;;;;;;4.30;1.10;;;;;;;24.35;27.33;101479.44;10450407;28;20616;-78
2022/08/09 18:23:06;;;;;;;2.33;1.42;;;;;;;24.60;27.16;101486.16;10459204;28;20568;-78
2022/08/09 18:28:29;;;;;;;2.45;1.10;;;;;;;24.38;27.89;101472.06;10447074;28;20200;-80
2022/08/09 18:33:51;;;;;;;2.45;1.45;;;;;;;24.43;27.18;101486.09;10445185;28;20231;-80
2022/08/09 18:39:13;;;;;;;4.18;1.45;;;;;;;24.24;27.38;101487.22;10449610;28;20191;-79
2022/08/09 18:44:35;;;;;;;2.28;1.00;;;;;;;25.11;26.59;101482.22;10479102;28;20196;-80
2022/08/09 18:49:57;;;;;;;3.38;1.48;;;;;;;23.33;29.03;101490.94;10464189;28;20325;-80
2022/08/09 18:55:19;;;;;;;3.95;1.30;;;;;;;23.83;27.39;101500.88;10446554;28;20581;-80
2022/08/09 19:00:42;;;;;;;3.10;1.20;;;;;;;23.79;27.45;101503.75;10446537;28;20246;-81
2022/08/09 19:06:05;;;;;;;9.93;6.18;;;;;;;23.56;28.30;101505.97;10452198;28;20597;-79
2022/08/09 19:11:29;;;;;;;1.67;1.08;;;;;;;23.14;28.47;101512.97;10442183;28;20243;-81
2022/08/09 19:16:51;;;;;;;1.20;1.10;;;;;;;23.16;28.45;101519.13;10446762;28;20912;-80
2022/08/09 19:22:16;;;;;;;2.70;0.93;;;;;;;23.33;28.46;101519.72;10444698;28;20192;-80
2022/08/09 19:27:38;;;;;;;3.65;1.85;;;;;;;23.24;28.47;101523.75;10445220;28;20219;-82
2022/08/09 19:33:01;;;;;;;2.45;1.20;;;;;;;22.91;29.24;101526.59;10443948;28;20274;-82
2022/08/09 19:38:23;;;;;;;1.95;1.02;;;;;;;23.01;29.49;101530.84;10429990;28;20862;-82
2022/08/09 19:43:45;;;;;;;3.45;1.50;;;;;;;22.98;29.04;101535.34;10450985;28;20608;-80
2022/08/09 19:49:07;;;;;;;4.05;1.42;;;;;;;22.63;29.61;101537.78;10458581;28;20503;-81
2022/08/09 19:54:29;;;;;;;2.42;1.10;;;;;;;22.44;30.19;101541.56;10468389;28;20625;-80
2022/08/09 19:59:52;;;;;;;3.80;1.27;;;;;;;22.57;29.93;101545.06;10446424;28;20262;-80
2022/08/09 20:05:14;;;;;;;2.25;1.25;;;;;;;22.11;30.19;101542.31;10446003;28;20196;-81
2022/08/09 20:10:37;;;;;;;3.17;1.20;;;;;;;22.44;29.93;101547.31;10455684;28;20664;-81
2022/08/09 20:15:59;;;;;;;2.47;1.02;;;;;;;22.15;30.66;101541.13;10450735;28;20601;-80
2022/08/09 20:21:21;;;;;;;1.90;0.90;;;;;;;21.94;30.93;101531.34;10457054;28;20199;-78
2022/08/09 20:26:43;;;;;;;3.03;1.15;;;;;;;21.74;31.14;101525.66;10451502;28;20196;-80
2022/08/09 20:32:10;;;;;;;3.10;0.90;;;;;;;21.99;30.99;101522.44;10450530;28;20216;-80
2022/08/09 20:37:33;;;;;;;1.65;0.90;;;;;;;21.47;31.79;101526.84;10471100;28;20248;-80
2022/08/09 20:42:56;;;;;;;5.68;1.20;;;;;;;21.58;31.38;101532.78;10452305;28;20216;-81
2022/08/09 20:48:18;;;;;;;2.85;1.08;;;;;;;21.75;32.29;101533.06;10456590;28;20191;-81
2022/08/09 20:53:40;;;;;;;3.85;1.10;;;;;;;21.37;31.95;101527.44;10455838;28;20293;-81
2022/08/09 20:59:02;;;;;;;3.33;1.40;;;;;;;21.48;32.70;101519.88;10442696;28;20289;-78
2022/08/09 21:04:25;;;;;;;1.90;1.02;;;;;;;21.39;32.60;101525.03;10444346;28;20672;-81
2022/08/09 21:09:47;;;;;;;4.60;1.05;;;;;;;20.79;34.21;101534.09;10459114;28;20250;-81
2022/08/09 21:15:09;;;;;;;2.28;0.80;;;;;;;21.08;33.35;101538.34;10454697;28;20244;-81
2022/08/09 21:20:32;;;;;;;3.55;1.05;;;;;;;20.98;34.20;101538.13;10452926;28;20196;-80
2022/08/09 21:25:54;;;;;;;4.57;1.08;;;;;;;21.05;33.59;101533.38;10427456;28;20592;-81
2022/08/09 21:31:16;;;;;;;2.33;1.13;;;;;;;20.98;34.13;101543.88;10441632;28;20743;-81
2022/08/09 21:36:38;;;;;;;1.45;1.00;;;;;;;20.75;34.93;101540.91;10441720;28;20253;-81
2022/08/09 21:42:01;;;;;;;1.77;1.25;;;;;;;20.65;35.11;101550.09;10442681;28;20191;-80
2022/08/09 21:47:23;;;;;;;1.85;1.15;;;;;;;20.90;34.64;101554.38;10437001;28;20196;-80
2022/08/09 21:52:45;;;;;;;5.20;1.23;;;;;;;20.97;34.68;101553.66;10429925;28;20223;-80
2022/08/09 21:58:07;;;;;;;1.70;0.90;;;;;;;20.36;35.97;101563.78;10453060;28;20262;-81
2022/08/09 22:03:29;;;;;;;3.63;1.02;;;;;;;20.45;35.72;101557.84;10449223;28;20246;-81
2022/08/09 22:08:51;;;;;;;3.67;1.10;;;;;;;20.48;36.11;101553.38;10460915;28;20227;-81
2022/08/09 22:14:14;;;;;;;1.42;0.80;;;;;;;20.34;36.70;101566.19;10445554;28;20293;-80
2022/08/09 22:19:36;;;;;;;2.45;0.98;;;;;;;20.27;36.44;101566.03;10438858;28;20200;-80
2022/08/09 22:24:58;;;;;;;1.50;0.82;;;;;;;19.92;37.29;101563.06;10438842;28;20280;-81
2022/08/09 22:30:20;;;;;;;2.35;1.17;;;;;;;20.21;36.64;101567.50;10432652;28;20247;-80
2022/08/09 22:35:43;;;;;;;1.67;0.95;;;;;;;19.97;37.19;101570.56;10448460;28;20217;-80
2022/08/09 22:41:05;;;;;;;3.58;1.13;;;;;;;20.02;37.31;101570.28;10453325;28;20196;-81
2022/08/09 22:46:27;;;;;;;3.75;0.93;;;;;;;20.30;36.99;101576.72;10455291;28;20686;-81
2022/08/09 22:51:50;;;;;;;4.47;0.90;;;;;;;19.94;37.83;101574.16;10456379;28;20281;-81
2022/08/09 22:57:12;;;;;;;2.55;0.82;;;;;;;20.06;37.71;101568.31;10478178;28;20195;-80
2022/08/09 23:02:34;;;;;;;4.07;0.90;;;;;;;19.92;38.07;101583.09;10466044;28;20214;-80
2022/08/09 23:13:37;;;;;;;2.38;1.05;;;;;;;19.88;37.70;101582.19;10446742;28;20251;-80
2022/08/09 23:18:59;;;;;;;1.90;1.00;;;;;;;19.55;38.51;101578.81;10461160;28;20273;-80
2022/08/09 23:24:22;;;;;;;1.63;1.02;;;;;;;19.98;37.93;101570.19;10459246;28;20237;-80
2022/08/09 23:29:44;;;;;;;1.95;1.00;;;;;;;19.65;39.16;101578.31;10446536;28;20606;-80
2022/08/09 23:35:06;;;;;;;2.47;0.98;;;;;;;19.69;39.17;101573.50;10420701;28;20669;-80
2022/08/09 23:40:29;;;;;;;3.10;1.13;;;;;;;19.82;38.88;101574.25;10446027;28;20593;-80
2022/08/09 23:45:51;;;;;;;2.10;1.27;;;;;;;19.56;39.75;101574.78;10435963;28;20297;-81
2022/08/09 23:51:13;;;;;;;2.10;1.00;;;;;;;19.53;39.58;101575.47;10464791;28;20247;-80
2022/08/09 23:56:35;;;;;;;3.88;1.02;;;;;;;19.26;40.50;101574.38;10457026;28;20257;-80
